Impacts TAF Board
For situational awareness. Not to be used for flight planning purposes.
IDs:

KLFK - Lufkin/Angelina Cnty, TX, US

Issued at 2320 UTC 02 Oct 2022
Updated at 2326 UTC 02 Oct 2022
Potential Impact None Slight Moderate High
Time2253Z 03/00Z 03/01Z 03/02Z 03/03Z 03/04Z 03/05Z 03/06Z 03/07Z 03/08Z 03/09Z 03/10Z 03/11Z 03/12Z>>
Type OBS PRVL PRVL PRVL PRVL PRVL PRVL PRVL PRVL PRVL PRVL PRVL PRVL PRVL
VIS 10 >6 >6 >6 >6 >6 >6 >6 >6 >6 >6 >6 >6 >6
CIG -- -- -- -- -- -- -- -- -- -- -- -- -- --
Cover CLR FEW FEW FEW FEW FEW FEW SKC SKC SKC SKC SKC SKC SKC
FltCat VFR VFR VFR VFR VFR VFR VFR VFR VFR VFR VFR VFR VFR VFR
WX -- -- -- -- -- -- -- -- -- -- -- -- -- --
WDir 70 VRB VRB VRB VRB VRB VRB VRB VRB VRB VRB VRB VRB VRB
WSpd 4 0 0 0 0 0 0 3 3 3 3 3 3 3
WGst -- -- -- -- -- -- -- -- -- -- -- -- -- --
WSHgt -- -- -- -- -- -- -- -- -- -- -- -- -- --
WSDir -- -- -- -- -- -- -- -- -- -- -- -- -- --
WSSpd -- -- -- -- -- -- -- -- -- -- -- -- -- --
R07/25
XWnd 0 VRB VRB VRB VRB VRB VRB VRB VRB VRB VRB VRB VRB VRB
HWnd 4 VRB VRB VRB VRB VRB VRB VRB VRB VRB VRB VRB VRB VRB
R16/34
XWnd 4 VRB VRB VRB VRB VRB VRB VRB VRB VRB VRB VRB VRB VRB
HWnd 0 VRB VRB VRB VRB VRB VRB VRB VRB VRB VRB VRB VRB VRB
Raw TAF
KLFK 022320Z 0300/0324 00000KT P6SM FEW250
  FM030600 VRB03KT P6SM SKC
  FM031700 06006KT P6SM SKC


Raw METAR
KLFK 022253Z AUTO 07004KT 10SM CLR 27/08 A3009 RMK AO2 SLP186 T02720078
KLFK 022153Z AUTO 06005KT 10SM CLR 29/05 A3009 RMK AO2 SLP185 T02940050
KLFK 022053Z AUTO 08007KT 10SM CLR 30/05 A3008 RMK AO2 SLP184 T03000050 56023

METAR Board
Radar Display
Forecast Discussion
For situational awareness. Not to be used for flight planning purposes.